createdAt,value
2024-04-22T00:00:21.561Z,62.15
2024-04-22T00:02:48.146Z,63.56
2024-04-22T00:05:14.728Z,63.47
2024-04-22T00:07:41.315Z,63.78
2024-04-22T00:10:07.888Z,63.51
2024-04-22T00:12:34.478Z,63.04
2024-04-22T00:15:00.991Z,63.32
2024-04-22T00:17:27.579Z,63.36
2024-04-22T00:19:54.142Z,64.05
2024-04-22T00:22:20.688Z,63.73
2024-04-22T00:24:47.214Z,62.99
2024-04-22T00:27:13.742Z,62.91
2024-04-22T00:29:40.269Z,63.13
2024-04-22T00:32:06.818Z,63.69
2024-04-22T00:34:33.367Z,62.67
2024-04-22T00:36:59.901Z,62.75
2024-04-22T00:39:26.503Z,61.79
2024-04-22T00:41:53.031Z,61.90
2024-04-22T00:44:19.602Z,62.40
2024-04-22T00:46:46.179Z,63.40
2024-04-22T00:49:12.758Z,63.55
2024-04-22T00:51:39.331Z,63.12
2024-04-22T00:54:05.853Z,63.22
2024-04-22T00:56:32.408Z,63.48
2024-04-22T00:58:58.949Z,63.00
2024-04-22T01:01:25.513Z,63.70
2024-04-22T01:03:52.041Z,64.05
2024-04-22T01:06:18.624Z,63.45
2024-04-22T01:08:45.154Z,63.99
2024-04-22T01:11:11.729Z,63.95
2024-04-22T01:13:38.332Z,63.56
2024-04-22T01:16:04.982Z,63.76
2024-04-22T01:18:31.548Z,64.34
2024-04-22T01:20:58.103Z,64.14
2024-04-22T01:23:24.646Z,64.27
2024-04-22T01:25:51.249Z,63.90
2024-04-22T01:28:17.859Z,63.99
2024-04-22T01:30:44.420Z,63.82
2024-04-22T01:33:11.020Z,64.49
2024-04-22T01:35:37.622Z,65.05
2024-04-22T01:38:04.151Z,64.85
2024-04-22T01:40:30.751Z,66.00
2024-04-22T01:42:57.333Z,65.50
2024-04-22T01:45:23.858Z,65.27
2024-04-22T01:47:50.473Z,64.95
2024-04-22T01:50:17.020Z,64.37
2024-04-22T01:52:43.629Z,64.15
2024-04-22T01:55:11.553Z,63.91
2024-04-22T01:57:38.330Z,64.04
2024-04-22T02:00:04.861Z,64.81
2024-04-22T02:02:31.436Z,64.32
2024-04-22T02:04:57.980Z,64.54
2024-04-22T02:07:27.181Z,64.75
2024-04-22T02:09:59.671Z,64.13
2024-04-22T02:12:32.296Z,63.65
2024-04-22T02:14:58.851Z,63.23
2024-04-22T02:17:25.419Z,63.65
2024-04-22T02:19:52.006Z,62.93
2024-04-22T02:22:18.568Z,62.44
2024-04-22T02:24:45.121Z,62.19
2024-04-22T02:27:11.641Z,62.25
2024-04-22T02:29:38.347Z,62.68
2024-04-22T02:32:04.852Z,62.53
2024-04-22T02:34:31.439Z,62.83
2024-04-22T02:36:57.993Z,62.79
2024-04-22T02:39:24.519Z,62.48
2024-04-22T02:41:51.038Z,62.35
2024-04-22T02:44:17.588Z,61.97
2024-04-22T02:46:44.185Z,61.93
2024-04-22T02:49:10.773Z,61.72
2024-04-22T02:51:37.391Z,61.53
2024-04-22T02:54:03.935Z,61.62
2024-04-22T02:56:30.463Z,62.18
2024-04-22T02:58:57.001Z,62.75
2024-04-22T03:01:23.539Z,63.13
2024-04-22T03:03:50.226Z,63.21
2024-04-22T03:06:16.802Z,62.72
2024-04-22T03:08:43.386Z,62.77
2024-04-22T03:11:09.999Z,62.42
2024-04-22T03:13:36.624Z,62.67
2024-04-22T03:16:03.163Z,63.15
2024-04-22T03:18:29.696Z,62.52
2024-04-22T03:20:56.220Z,61.86
2024-04-22T03:23:22.764Z,61.94
2024-04-22T03:25:49.354Z,62.09
2024-04-22T03:28:15.919Z,61.37
2024-04-22T03:30:42.438Z,61.11
2024-04-22T03:33:09.045Z,60.84
2024-04-22T03:35:35.796Z,61.04
2024-04-22T03:38:02.365Z,60.84
2024-04-22T03:40:28.957Z,61.39
2024-04-22T03:42:55.500Z,61.31
2024-04-22T03:45:22.024Z,61.79
2024-04-22T03:47:48.677Z,61.66
2024-04-22T03:50:15.268Z,62.28
2024-04-22T03:52:41.981Z,62.46
2024-04-22T03:55:08.687Z,63.06
2024-04-22T03:57:35.302Z,63.19
2024-04-22T04:00:01.831Z,63.22
2024-04-22T04:02:28.430Z,63.32
2024-04-22T04:04:55.227Z,63.92
2024-04-22T04:07:21.861Z,64.47
2024-04-22T04:09:48.445Z,64.12
2024-04-22T04:12:15.007Z,64.13
2024-04-22T04:14:41.577Z,63.97
2024-04-22T04:17:08.177Z,64.26
2024-04-22T04:19:34.896Z,64.57
2024-04-22T04:22:01.501Z,64.69
2024-04-22T04:24:28.030Z,64.12
2024-04-22T04:26:54.605Z,64.07
2024-04-22T04:29:21.122Z,64.27
2024-04-22T04:31:47.758Z,64.39
2024-04-22T04:34:14.416Z,64.80
2024-04-22T04:36:40.976Z,64.75
2024-04-22T04:39:07.519Z,64.80
2024-04-22T04:41:34.056Z,64.59
2024-04-22T04:44:00.622Z,64.66
2024-04-22T04:46:27.191Z,64.78
2024-04-22T04:48:54.143Z,64.52
2024-04-22T04:51:20.815Z,64.17
2024-04-22T04:53:47.333Z,64.06
2024-04-22T04:56:13.868Z,63.77
2024-04-22T04:58:40.420Z,63.27
2024-04-22T05:01:07.102Z,63.97
2024-04-22T05:03:33.658Z,64.18
2024-04-22T05:06:00.181Z,63.05
2024-04-22T05:08:26.686Z,63.61
2024-04-22T05:10:53.259Z,63.63
2024-04-22T05:13:19.829Z,64.16
2024-04-22T05:15:46.435Z,63.99
2024-04-22T05:18:12.999Z,63.99
2024-04-22T05:20:39.582Z,63.96
2024-04-22T05:23:06.121Z,64.06
2024-04-22T05:25:32.672Z,63.83
2024-04-22T05:27:59.257Z,63.53
2024-04-22T05:30:25.810Z,63.23
2024-04-22T05:32:52.426Z,62.95
2024-04-22T05:35:19.000Z,62.63
2024-04-22T05:37:45.577Z,62.99
2024-04-22T05:40:12.142Z,63.01
2024-04-22T05:42:38.687Z,62.49
2024-04-22T05:45:05.251Z,61.99
2024-04-22T05:47:31.899Z,62.70
2024-04-22T05:49:58.489Z,62.88
2024-04-22T05:52:25.054Z,63.55
2024-04-22T05:54:51.588Z,63.66
2024-04-22T05:57:18.120Z,63.56
2024-04-22T05:59:44.652Z,63.29
2024-04-22T06:02:11.245Z,70.48
2024-04-22T06:04:37.842Z,66.39
2024-04-22T06:07:04.373Z,60.92
2024-04-22T06:09:30.920Z,61.36
2024-04-22T06:12:07.839Z,61.28
2024-04-22T06:14:42.014Z,62.74
2024-04-22T06:17:08.608Z,63.34
2024-04-22T06:19:35.237Z,64.15
2024-04-22T06:22:01.782Z,64.31
2024-04-22T06:24:28.337Z,65.59
2024-04-22T06:26:54.899Z,65.90
2024-04-22T06:29:21.444Z,66.34
2024-04-22T06:31:48.006Z,66.60
2024-04-22T06:34:14.571Z,67.94
2024-04-22T06:36:41.144Z,67.88
2024-04-22T06:39:07.663Z,67.93
2024-04-22T06:41:34.210Z,67.89
2024-04-22T06:44:00.713Z,68.36
2024-04-22T06:46:27.309Z,68.74
2024-04-22T06:48:53.900Z,68.83
2024-04-22T06:51:20.444Z,68.34
2024-04-22T06:53:46.993Z,69.28
2024-04-22T06:56:13.572Z,68.13
2024-04-22T06:58:40.123Z,67.94
2024-04-22T07:01:06.719Z,67.73
2024-04-22T07:03:33.418Z,66.97
2024-04-22T07:06:00.037Z,67.53
2024-04-22T07:08:26.576Z,67.01
2024-04-22T07:10:53.155Z,67.20
2024-04-22T07:13:19.727Z,67.04
2024-04-22T07:15:46.277Z,67.24
2024-04-22T07:18:12.854Z,68.61
2024-04-22T07:20:39.426Z,68.38
2024-04-22T07:23:05.960Z,68.12
2024-04-22T07:25:32.518Z,67.90
2024-04-22T07:28:00.670Z,68.16
2024-04-22T07:30:27.565Z,67.71
2024-04-22T07:32:54.220Z,68.65
2024-04-22T07:35:20.910Z,68.27
2024-04-22T07:37:47.454Z,68.42
2024-04-22T07:40:14.052Z,67.26
2024-04-22T07:42:40.592Z,66.77
2024-04-22T07:45:07.178Z,66.72
2024-04-22T07:47:33.775Z,66.17
2024-04-22T07:50:00.426Z,65.25
2024-04-22T07:52:27.044Z,64.83
2024-04-22T07:54:53.625Z,63.56
2024-04-22T07:57:20.161Z,62.88
2024-04-22T07:59:46.711Z,63.22
2024-04-22T08:02:13.264Z,63.94
2024-04-22T08:04:39.822Z,63.68
2024-04-22T08:07:06.495Z,63.61
2024-04-22T08:09:33.098Z,63.86
2024-04-22T08:11:59.660Z,62.88
2024-04-22T08:14:26.179Z,64.12
2024-04-22T08:16:52.808Z,63.63
2024-04-22T08:19:19.414Z,62.66
2024-04-22T08:21:45.988Z,64.44
2024-04-22T08:24:12.523Z,63.17
2024-04-22T08:26:39.064Z,63.16
2024-04-22T08:29:05.633Z,63.05
2024-04-22T08:31:32.294Z,62.83
2024-04-22T08:33:58.915Z,62.50
2024-04-22T08:36:25.457Z,63.12
2024-04-22T08:38:52.040Z,62.02
2024-04-22T08:41:18.560Z,61.93
2024-04-22T08:43:45.366Z,60.94
2024-04-22T08:46:11.969Z,62.41
2024-04-22T08:48:38.610Z,62.30
2024-04-22T08:51:05.167Z,60.89
2024-04-22T08:53:31.707Z,60.86
2024-04-22T08:55:58.316Z,60.67
2024-04-22T08:58:24.987Z,59.83
2024-04-22T09:00:51.564Z,59.69
2024-04-22T09:03:18.142Z,59.50
2024-04-22T09:05:44.852Z,60.27
2024-04-22T09:08:11.513Z,60.35
2024-04-22T09:11:06.327Z,60.06
2024-04-22T09:13:24.744Z,59.82
2024-04-22T09:15:51.394Z,59.13
2024-04-22T09:18:18.100Z,58.69
2024-04-22T09:20:44.802Z,58.61
2024-04-22T09:23:11.556Z,58.65
2024-04-22T09:25:38.206Z,59.25
2024-04-22T09:28:05.924Z,58.99
2024-04-22T09:30:32.487Z,60.33
2024-04-22T09:32:59.274Z,58.81
2024-04-22T09:35:26.113Z,57.89
2024-04-22T09:37:52.844Z,59.12
2024-04-22T09:40:19.776Z,58.67
2024-04-22T09:42:46.763Z,58.48
2024-04-22T09:45:13.322Z,58.08
2024-04-22T09:47:40.006Z,58.13
2024-04-22T09:50:06.959Z,57.35
2024-04-22T09:52:33.743Z,56.80
2024-04-22T09:55:00.412Z,57.56
2024-04-22T09:57:27.063Z,57.30
2024-04-22T09:59:53.586Z,56.20
2024-04-22T10:02:20.294Z,55.55
2024-04-22T10:04:47.101Z,53.80
2024-04-22T10:07:13.843Z,53.84
2024-04-22T10:09:40.465Z,53.47
2024-04-22T10:12:07.271Z,53.13
2024-04-22T10:14:33.917Z,53.35
2024-04-22T10:17:00.564Z,52.25
2024-04-22T10:19:27.484Z,52.71
2024-04-22T10:21:54.126Z,52.41
2024-04-22T10:24:20.661Z,51.74
2024-04-22T10:26:56.554Z,49.83
2024-04-22T10:29:31.406Z,49.59
2024-04-22T10:31:57.992Z,50.01
2024-04-22T10:34:24.623Z,51.05
2024-04-22T10:36:52.669Z,50.82
2024-04-22T10:39:19.889Z,51.46
2024-04-22T10:41:46.464Z,51.09
2024-04-22T10:44:13.004Z,52.37
2024-04-22T10:46:39.581Z,52.35
2024-04-22T10:49:06.268Z,53.01
2024-04-22T10:51:32.837Z,53.13
2024-04-22T10:53:59.348Z,53.50
2024-04-22T10:56:25.906Z,54.18
2024-04-22T10:58:52.446Z,54.59
2024-04-22T11:01:19.196Z,55.75
2024-04-22T11:03:45.801Z,54.83
2024-04-22T11:06:12.392Z,54.33
2024-04-22T11:08:38.942Z,55.25
2024-04-22T11:11:05.641Z,55.26
2024-04-22T11:13:32.279Z,55.16
2024-04-22T11:15:58.863Z,57.20
2024-04-22T11:18:25.397Z,57.78
2024-04-22T11:20:51.959Z,59.20
2024-04-22T11:23:18.527Z,58.98
2024-04-22T11:25:45.109Z,58.72
2024-04-22T11:28:11.672Z,57.72
2024-04-22T11:30:41.125Z,56.21
2024-04-22T11:33:08.908Z,55.46
2024-04-22T11:35:35.506Z,55.77
2024-04-22T11:38:02.057Z,55.33
2024-04-22T11:40:28.661Z,54.78
2024-04-22T11:42:55.226Z,55.92
2024-04-22T11:45:21.760Z,55.21
2024-04-22T11:47:48.481Z,55.35
2024-04-22T11:50:15.159Z,55.11
2024-04-22T11:52:41.773Z,54.71
2024-04-22T11:55:08.399Z,55.23
2024-04-22T11:57:35.049Z,56.44
2024-04-22T12:00:01.595Z,57.07
2024-04-22T12:02:28.125Z,56.83
2024-04-22T12:04:54.803Z,56.79
2024-04-22T12:07:21.477Z,56.18
2024-04-22T12:09:48.096Z,55.27
2024-04-22T12:12:14.625Z,55.41
2024-04-22T12:14:41.153Z,56.12
2024-04-22T12:17:07.760Z,55.65
2024-04-22T12:19:34.362Z,54.51
2024-04-22T12:22:00.907Z,54.30
2024-04-22T12:24:27.467Z,54.55
2024-04-22T12:26:54.000Z,52.83
2024-04-22T12:29:20.548Z,53.08
2024-04-22T12:31:47.307Z,53.30
2024-04-22T12:34:14.333Z,54.05
2024-04-22T12:36:41.008Z,54.87
2024-04-22T12:39:07.548Z,55.14
2024-04-22T12:41:34.101Z,54.65
2024-04-22T12:44:03.897Z,54.85
2024-04-22T12:46:31.289Z,55.02
2024-04-22T12:48:57.837Z,56.65
2024-04-22T12:51:24.378Z,56.76
2024-04-22T12:53:50.895Z,59.21
2024-04-22T12:56:17.449Z,59.68
2024-04-22T12:58:44.046Z,61.63
2024-04-22T13:01:10.608Z,62.21
2024-04-22T13:03:37.139Z,63.42
2024-04-22T13:06:03.674Z,64.25
2024-04-22T13:08:30.207Z,63.45
2024-04-22T13:10:56.916Z,62.69
2024-04-22T13:13:23.516Z,63.22
2024-04-22T13:15:50.050Z,62.48
2024-04-22T13:18:16.686Z,61.97
2024-04-22T13:20:43.320Z,61.92
2024-04-22T13:23:09.861Z,62.26
2024-04-22T13:25:36.491Z,62.13
2024-04-22T13:28:03.069Z,61.16
2024-04-22T13:30:29.597Z,62.99
2024-04-22T13:32:56.219Z,64.32
2024-04-22T13:35:22.813Z,65.43
2024-04-22T13:40:39.772Z,66.21
2024-04-22T13:43:06.378Z,66.46
2024-04-22T13:45:32.918Z,66.25
2024-04-22T13:47:59.520Z,64.80
2024-04-22T13:50:26.117Z,65.26
2024-04-22T13:52:53.000Z,66.65
2024-04-22T13:55:19.615Z,66.63
2024-04-22T13:57:46.124Z,68.04
2024-04-22T14:00:14.716Z,67.99
2024-04-22T14:02:41.668Z,68.58
2024-04-22T14:05:08.358Z,68.53
2024-04-22T14:07:35.267Z,69.63
2024-04-22T14:10:05.020Z,68.88
2024-04-22T14:12:33.967Z,67.83
2024-04-22T14:15:00.498Z,67.99
2024-04-22T14:17:27.110Z,65.75
2024-04-22T14:19:53.762Z,65.18
2024-04-22T14:22:20.438Z,64.54
2024-04-22T14:24:46.993Z,64.66
2024-04-22T14:27:13.509Z,65.49
2024-04-22T14:29:40.063Z,64.32
2024-04-22T14:32:06.600Z,64.10
2024-04-22T14:34:33.150Z,64.35
2024-04-22T14:36:59.740Z,65.14
2024-04-22T14:39:26.286Z,66.08
2024-04-22T14:41:52.826Z,66.04
2024-04-22T14:44:19.348Z,66.26
2024-04-22T14:46:45.942Z,66.03
2024-04-22T14:49:12.459Z,65.45
2024-04-22T14:51:39.018Z,65.27
2024-04-22T14:54:05.601Z,64.71
2024-04-22T14:56:32.129Z,64.16
2024-04-22T14:58:58.796Z,64.10
2024-04-22T15:01:25.556Z,64.26
2024-04-22T15:03:52.279Z,62.86
2024-04-22T15:06:18.871Z,64.30
2024-04-22T15:08:45.401Z,66.24
2024-04-22T15:11:12.044Z,65.55
2024-04-22T15:13:38.640Z,65.41
2024-04-22T15:16:05.241Z,65.83
2024-04-22T15:18:31.812Z,65.76
2024-04-22T15:20:58.376Z,64.43
2024-04-22T15:23:24.933Z,65.58
2024-04-22T15:25:51.542Z,63.82
2024-04-22T15:28:18.147Z,65.05
2024-04-22T15:30:44.802Z,65.02
2024-04-22T15:33:11.364Z,66.01
2024-04-22T15:35:38.046Z,64.97
2024-04-22T15:38:04.695Z,65.75
2024-04-22T15:40:32.548Z,64.44
2024-04-22T15:43:00.956Z,63.67
2024-04-22T15:45:27.474Z,63.42
2024-04-22T15:47:54.051Z,63.09
2024-04-22T15:50:20.573Z,63.12
2024-04-22T15:52:47.140Z,64.72
2024-04-22T15:55:13.713Z,64.25
2024-04-22T15:57:40.244Z,63.25
2024-04-22T16:00:10.149Z,63.49
2024-04-22T16:05:27.876Z,64.49
2024-04-22T16:07:57.330Z,64.57
2024-04-22T16:10:24.307Z,64.35
2024-04-22T16:12:50.769Z,64.48
2024-04-22T16:15:17.241Z,65.55
2024-04-22T16:17:43.812Z,65.46
2024-04-22T16:20:10.392Z,65.39
2024-04-22T16:22:37.008Z,65.09
2024-04-22T16:25:03.549Z,65.78
2024-04-22T16:27:30.077Z,66.24
2024-04-22T16:29:56.597Z,65.62
2024-04-22T16:32:23.188Z,65.68
2024-04-22T16:34:49.830Z,65.50
2024-04-22T16:37:16.477Z,66.37
2024-04-22T16:39:43.049Z,66.99
2024-04-22T16:42:09.590Z,66.77
2024-04-22T16:44:36.138Z,67.75
2024-04-22T16:47:02.734Z,68.31
2024-04-22T16:49:29.293Z,68.02
2024-04-22T16:51:55.866Z,67.70
2024-04-22T16:54:22.381Z,68.69
2024-04-22T16:56:48.942Z,68.06
2024-04-22T16:59:15.500Z,67.76
2024-04-22T17:01:42.143Z,67.69
2024-04-22T17:04:08.813Z,66.84
2024-04-22T17:06:35.441Z,67.54
2024-04-22T17:09:01.973Z,67.52
2024-04-22T17:11:28.548Z,66.36
2024-04-22T17:13:55.131Z,66.02
2024-04-22T17:16:21.684Z,65.50
2024-04-22T17:18:48.298Z,65.59
2024-04-22T17:21:14.864Z,65.71
2024-04-22T17:23:41.413Z,65.34
2024-04-22T17:26:07.969Z,66.37
2024-04-22T17:28:34.526Z,64.85
2024-04-22T17:31:01.053Z,64.99
2024-04-22T17:33:27.705Z,64.04
2024-04-22T17:35:54.271Z,63.67
2024-04-22T17:38:20.825Z,64.29
2024-04-22T17:40:47.438Z,62.78
2024-04-22T17:43:13.995Z,62.75
2024-04-22T17:45:40.518Z,63.27
2024-04-22T17:48:07.168Z,64.38
2024-04-22T17:50:33.742Z,64.29
2024-04-22T17:53:07.571Z,64.39
2024-04-22T17:55:36.707Z,64.38
2024-04-22T17:58:03.292Z,63.45
2024-04-22T18:00:29.845Z,63.49
2024-04-22T18:02:56.414Z,62.95
2024-04-22T18:05:22.960Z,63.74
2024-04-22T18:07:49.563Z,63.16
2024-04-22T18:10:16.129Z,62.75
2024-04-22T18:12:42.645Z,64.71
2024-04-22T18:15:11.603Z,63.91
2024-04-22T18:17:38.219Z,64.69
2024-04-22T18:20:04.780Z,64.39
2024-04-22T18:22:38.376Z,64.77
2024-04-22T18:25:07.923Z,64.98
2024-04-22T18:27:34.469Z,65.45
2024-04-22T18:30:02.815Z,65.80
2024-04-22T18:32:29.772Z,66.20
2024-04-22T18:34:56.390Z,66.20
2024-04-22T18:37:22.990Z,65.95
2024-04-22T18:39:49.563Z,65.57
2024-04-22T18:42:16.107Z,65.49
2024-04-22T18:44:42.661Z,65.14
2024-04-22T18:47:09.222Z,65.42
2024-04-22T18:49:35.824Z,65.12
2024-04-22T18:52:02.394Z,65.93
2024-04-22T18:54:28.960Z,65.83
2024-04-22T18:56:55.502Z,65.68
2024-04-22T18:59:22.039Z,65.06
2024-04-22T19:01:48.660Z,65.04
2024-04-22T19:04:15.293Z,71.43
2024-04-22T19:06:41.843Z,65.65
2024-04-22T19:09:08.393Z,63.26
2024-04-22T19:11:35.006Z,63.03
2024-04-22T19:14:01.629Z,64.10
2024-04-22T19:16:28.222Z,64.43
2024-04-22T19:18:54.772Z,64.79
2024-04-22T19:21:21.324Z,65.15
2024-04-22T19:23:47.891Z,64.51
2024-04-22T19:26:14.425Z,64.09
2024-04-22T19:28:41.028Z,63.47
2024-04-22T19:31:07.624Z,63.81
2024-04-22T19:33:34.193Z,63.84
2024-04-22T19:36:00.746Z,64.77
2024-04-22T19:38:27.298Z,64.89
2024-04-22T19:40:53.866Z,65.91
2024-04-22T19:43:20.456Z,65.80
2024-04-22T19:45:47.032Z,66.77
2024-04-22T19:48:13.613Z,66.22
2024-04-22T19:50:40.220Z,65.85
2024-04-22T19:53:06.761Z,65.87
2024-04-22T19:55:33.320Z,65.54
2024-04-22T19:57:59.881Z,65.98
2024-04-22T20:00:26.420Z,65.92
2024-04-22T20:02:53.039Z,65.47
2024-04-22T20:05:19.782Z,65.91
2024-04-22T20:07:46.415Z,66.97
2024-04-22T20:10:13.190Z,68.09
2024-04-22T20:12:39.762Z,68.06
2024-04-22T20:15:06.314Z,68.87
2024-04-22T20:17:32.891Z,68.27
2024-04-22T20:19:59.529Z,67.37
2024-04-22T20:22:26.130Z,66.64
2024-04-22T20:24:52.707Z,66.31
2024-04-22T20:27:19.250Z,67.00
2024-04-22T20:29:45.809Z,66.54
2024-04-22T20:32:12.500Z,67.67
2024-04-22T20:34:39.249Z,69.36
2024-04-22T20:37:05.804Z,69.20
2024-04-22T20:39:32.352Z,68.96
2024-04-22T20:41:58.875Z,68.36
2024-04-22T20:44:25.456Z,68.50
2024-04-22T20:46:52.006Z,68.62
2024-04-22T20:49:18.555Z,68.40
2024-04-22T20:51:45.067Z,67.58
2024-04-22T20:54:11.616Z,67.58
2024-04-22T20:56:38.190Z,67.74
2024-04-22T20:59:04.819Z,67.25
2024-04-22T21:01:31.415Z,66.58
2024-04-22T21:03:57.969Z,66.31
2024-04-22T21:06:24.525Z,65.93
2024-04-22T21:08:51.068Z,67.55
2024-04-22T21:11:17.731Z,67.71
2024-04-22T21:13:44.718Z,67.97
2024-04-22T21:16:11.568Z,67.91
2024-04-22T21:18:38.138Z,68.63
2024-04-22T21:21:04.746Z,68.72
2024-04-22T21:23:31.299Z,68.22
2024-04-22T21:25:57.872Z,67.48
2024-04-22T21:28:24.460Z,68.02
2024-04-22T21:30:51.018Z,68.84
2024-04-22T21:33:34.062Z,68.60
2024-04-22T21:36:04.172Z,68.42
2024-04-22T21:38:30.698Z,69.34
2024-04-22T21:40:57.258Z,69.88
2024-04-22T21:43:23.862Z,70.23
2024-04-22T21:45:50.447Z,69.69
2024-04-22T21:48:17.016Z,70.96
2024-04-22T21:50:43.559Z,71.27
2024-04-22T21:53:10.122Z,70.98
2024-04-22T21:55:36.748Z,71.65
2024-04-22T21:58:03.359Z,71.00
2024-04-22T22:00:29.916Z,70.91
2024-04-22T22:02:56.463Z,70.41
2024-04-22T22:05:23.002Z,70.35
2024-04-22T22:07:49.590Z,69.50
2024-04-22T22:10:16.163Z,69.71
2024-04-22T22:12:42.740Z,70.51
2024-04-22T22:15:09.254Z,70.88
2024-04-22T22:17:35.928Z,69.77
2024-04-22T22:20:02.573Z,71.01
2024-04-22T22:22:29.173Z,70.35
2024-04-22T22:24:55.728Z,71.29
2024-04-22T22:27:22.267Z,70.28
2024-04-22T22:29:48.847Z,70.11
2024-04-22T22:32:15.484Z,69.95
2024-04-22T22:34:42.092Z,69.78
2024-04-22T22:37:08.648Z,69.39
2024-04-22T22:39:35.269Z,69.36
2024-04-22T22:42:01.812Z,69.62
2024-04-22T22:44:28.382Z,69.62
2024-04-22T22:46:54.895Z,69.28
2024-04-22T22:49:21.473Z,68.65
2024-04-22T22:51:48.024Z,69.18
2024-04-22T22:54:14.545Z,69.01
2024-04-22T22:56:41.109Z,69.51
2024-04-22T22:59:07.644Z,70.40
2024-04-22T23:01:34.241Z,70.49
2024-04-22T23:04:00.883Z,70.36
2024-04-22T23:06:27.470Z,70.33
2024-04-22T23:08:54.024Z,71.19
2024-04-22T23:11:20.691Z,70.60
2024-04-22T23:13:47.307Z,70.50
2024-04-22T23:16:13.862Z,70.38
2024-04-22T23:18:40.402Z,69.87
2024-04-22T23:21:06.948Z,69.65
2024-04-22T23:23:33.480Z,69.74
2024-04-22T23:26:00.044Z,70.36
2024-04-22T23:28:26.649Z,70.32
2024-04-22T23:30:53.202Z,69.81
2024-04-22T23:33:20.091Z,70.67
2024-04-22T23:35:46.649Z,70.22
2024-04-22T23:38:13.163Z,70.40
2024-04-22T23:40:39.804Z,71.79
2024-04-22T23:43:06.353Z,70.52
2024-04-22T23:45:32.907Z,70.01
2024-04-22T23:47:59.703Z,71.09
2024-04-22T23:50:26.333Z,70.27
2024-04-22T23:52:52.904Z,70.79
2024-04-22T23:55:19.441Z,70.39
2024-04-22T23:57:46.000Z,69.78
